الصفحة الرئيسية
METAR-TAF:

METAR-TAF

مطار :

كراكاس, فنزويلا

دائرة عرض: 10-36N, خط طول: 066-59W, ارتفاع: 43 متر

مراقبة الطقس الحالي

تاريخ ووقت الإصدار 53 دقيقة قبل الساعة 01:00UTC
ريح 5 عقدة من الشرق
درجة الحرارة 28°درجة مئوية
الرطوبة 94%
ضغط
الرؤية: 1013 متر
غيوم متفرقة على ارتفاع 1600 قدم
غيوم مفككة على ارتفاع 8000 قدم

METAR: SVMI 260100Z 09005KT 9999 SCT016 BKN080 28/27 1013

زمن: 21:53 (01:53 UTC)

توقعات

تاريخ ووقت الإصدار 3ساعات و 53 دقيقة قبل الساعة 22:00UTC
التوقعات صالحة من26 الساعة 00 UTC إلى 27 الساعة 00 UTC
ريح 5 عقدة من الجنوب/الجنوب الشرقي
الرؤية 10 كم أو أكثر
غيوم متفرقة على ارتفاع 1600 قدم
أصبح
من 26 الساعة 06 UTC إلى 26 الساعة 10 UTC
الرؤية: 9000 متر
غيوم متفرقة على ارتفاع 1600 قدم
غيوم مفككة على ارتفاع 7000 قدم
رذاذ خفيف,

TAF: SVMI 252200Z 2600/2700 16005KT 9999 SCT016 TX33/2618Z TN23/2607Z BECMG 2606/2610 9000 -DZ SCT016 BKN070

أرصاد الطقس والتوقعات من أكثر من 4000 مطار (تقارير الطقس للمطار METAR والتنبؤ بالطقس بالمطارTAF).

المحطات المتاحة هي النقط الصفراء والحمراء على الخريطة.

حرك المؤشر فوق النقطة لمعرفة اسم المحطة.

ثم انقر لمعرفة أرصاد وتوقعات الطقس.

لتغيير الخارطة: اضغط على الأزرار الخضراء مع رمز الصليب الأسود للتكبير. على الزر الأخضر مع شرطة للتصغير، أو على الأسهم الخضراء للخرائط المجاورة.


METAR-TAF: